sensor_id;sensor_type;location;lat;lon;timestamp;P1;durP1;ratioP1;P2;durP2;ratioP2
9526;SDS011;4802;51.494;6.770;2022-08-01T00:01:58;3.03;;;2.73;;
9526;SDS011;4802;51.494;6.770;2022-08-01T00:04:28;14.33;;;3.00;;
9526;SDS011;4802;51.494;6.770;2022-08-01T00:07:00;4.67;;;3.20;;
9526;SDS011;4802;51.494;6.770;2022-08-01T00:09:29;3.83;;;3.40;;
9526;SDS011;4802;51.494;6.770;2022-08-01T00:12:01;3.33;;;3.13;;
9526;SDS011;4802;51.494;6.770;2022-08-01T00:14:33;4.73;;;3.07;;
9526;SDS011;4802;51.494;6.770;2022-08-01T00:17:02;5.13;;;3.30;;
9526;SDS011;4802;51.494;6.770;2022-08-01T00:19:33;6.87;;;3.77;;
9526;SDS011;4802;51.494;6.770;2022-08-01T00:22:04;5.73;;;4.50;;
9526;SDS011;4802;51.494;6.770;2022-08-01T00:24:35;4.20;;;3.67;;
9526;SDS011;4802;51.494;6.770;2022-08-01T00:27:04;9.17;;;3.70;;
9526;SDS011;4802;51.494;6.770;2022-08-01T00:29:33;6.63;;;3.53;;
9526;SDS011;4802;51.494;6.770;2022-08-01T00:32:24;9.43;;;3.63;;
9526;SDS011;4802;51.494;6.770;2022-08-01T00:34:58;5.90;;;3.10;;
9526;SDS011;4802;51.494;6.770;2022-08-01T00:37:33;3.90;;;3.60;;
9526;SDS011;4802;51.494;6.770;2022-08-01T00:40:05;3.30;;;3.00;;
9526;SDS011;4802;51.494;6.770;2022-08-01T00:42:35;6.83;;;3.17;;
9526;SDS011;4802;51.494;6.770;2022-08-01T00:45:09;3.63;;;3.23;;
9526;SDS011;4802;51.494;6.770;2022-08-01T00:47:40;3.27;;;3.07;;
9526;SDS011;4802;51.494;6.770;2022-08-01T00:50:20;4.07;;;3.03;;
9526;SDS011;4802;51.494;6.770;2022-08-01T00:52:52;5.50;;;3.97;;
9526;SDS011;4802;51.494;6.770;2022-08-01T00:55:24;5.30;;;4.00;;
9526;SDS011;4802;51.494;6.770;2022-08-01T00:57:58;3.10;;;2.90;;
9526;SDS011;4802;51.494;6.770;2022-08-01T01:00:32;3.73;;;3.13;;
9526;SDS011;4802;51.494;6.770;2022-08-01T01:03:19;7.60;;;4.13;;
9526;SDS011;4802;51.494;6.770;2022-08-01T01:06:18;4.23;;;3.83;;
9526;SDS011;4802;51.494;6.770;2022-08-01T01:09:02;5.83;;;3.93;;
9526;SDS011;4802;51.494;6.770;2022-08-01T01:11:53;4.27;;;3.87;;
9526;SDS011;4802;51.494;6.770;2022-08-01T01:14:37;3.83;;;3.53;;
9526;SDS011;4802;51.494;6.770;2022-08-01T01:17:14;6.60;;;4.40;;
9526;SDS011;4802;51.494;6.770;2022-08-01T01:20:06;4.93;;;3.70;;
9526;SDS011;4802;51.494;6.770;2022-08-01T01:22:50;7.47;;;4.90;;
9526;SDS011;4802;51.494;6.770;2022-08-01T01:25:45;6.67;;;4.63;;
9526;SDS011;4802;51.494;6.770;2022-08-01T01:28:27;5.43;;;4.40;;
9526;SDS011;4802;51.494;6.770;2022-08-01T01:31:03;4.67;;;3.70;;
9526;SDS011;4802;51.494;6.770;2022-08-01T01:33:39;5.53;;;4.27;;
9526;SDS011;4802;51.494;6.770;2022-08-01T01:36:13;5.60;;;4.10;;
9526;SDS011;4802;51.494;6.770;2022-08-01T01:38:45;6.30;;;4.63;;
9526;SDS011;4802;51.494;6.770;2022-08-01T01:41:15;6.30;;;5.20;;
9526;SDS011;4802;51.494;6.770;2022-08-01T01:43:46;6.53;;;4.00;;
9526;SDS011;4802;51.494;6.770;2022-08-01T01:46:24;11.50;;;4.93;;
9526;SDS011;4802;51.494;6.770;2022-08-01T01:49:00;4.47;;;3.20;;
9526;SDS011;4802;51.494;6.770;2022-08-01T01:51:32;9.17;;;4.00;;
9526;SDS011;4802;51.494;6.770;2022-08-01T01:54:02;3.47;;;2.90;;
9526;SDS011;4802;51.494;6.770;2022-08-01T01:56:33;6.53;;;4.30;;
9526;SDS011;4802;51.494;6.770;2022-08-01T01:59:15;4.13;;;3.17;;
9526;SDS011;4802;51.494;6.770;2022-08-01T02:01:53;6.53;;;3.40;;
9526;SDS011;4802;51.494;6.770;2022-08-01T02:04:35;6.93;;;4.00;;
9526;SDS011;4802;51.494;6.770;2022-08-01T02:07:09;3.90;;;3.50;;
9526;SDS011;4802;51.494;6.770;2022-08-01T02:09:40;4.80;;;3.10;;
9526;SDS011;4802;51.494;6.770;2022-08-01T02:12:10;4.33;;;3.67;;
9526;SDS011;4802;51.494;6.770;2022-08-01T02:14:42;6.40;;;3.30;;
9526;SDS011;4802;51.494;6.770;2022-08-01T02:17:17;5.47;;;3.13;;
9526;SDS011;4802;51.494;6.770;2022-08-01T02:19:48;5.60;;;3.60;;
9526;SDS011;4802;51.494;6.770;2022-08-01T02:22:19;4.57;;;3.00;;
9526;SDS011;4802;51.494;6.770;2022-08-01T02:24:54;6.77;;;4.67;;
9526;SDS011;4802;51.494;6.770;2022-08-01T02:27:30;5.03;;;3.80;;
9526;SDS011;4802;51.494;6.770;2022-08-01T02:30:04;10.00;;;5.90;;
9526;SDS011;4802;51.494;6.770;2022-08-01T02:32:38;6.00;;;4.80;;
9526;SDS011;4802;51.494;6.770;2022-08-01T02:35:11;10.23;;;6.50;;
9526;SDS011;4802;51.494;6.770;2022-08-01T02:37:47;12.73;;;6.30;;
9526;SDS011;4802;51.494;6.770;2022-08-01T02:40:17;20.53;;;8.80;;
9526;SDS011;4802;51.494;6.770;2022-08-01T02:42:47;8.67;;;4.87;;
9526;SDS011;4802;51.494;6.770;2022-08-01T02:45:18;11.20;;;6.07;;
9526;SDS011;4802;51.494;6.770;2022-08-01T02:47:57;7.37;;;4.40;;
9526;SDS011;4802;51.494;6.770;2022-08-01T02:50:29;4.37;;;3.87;;
9526;SDS011;4802;51.494;6.770;2022-08-01T02:53:02;5.70;;;4.63;;
9526;SDS011;4802;51.494;6.770;2022-08-01T02:55:34;5.00;;;3.50;;
9526;SDS011;4802;51.494;6.770;2022-08-01T02:58:05;5.93;;;4.53;;
9526;SDS011;4802;51.494;6.770;2022-08-01T03:00:38;4.73;;;4.40;;
9526;SDS011;4802;51.494;6.770;2022-08-01T03:03:13;4.80;;;4.00;;
9526;SDS011;4802;51.494;6.770;2022-08-01T03:05:44;4.07;;;3.67;;
9526;SDS011;4802;51.494;6.770;2022-08-01T03:08:13;4.13;;;3.73;;
9526;SDS011;4802;51.494;6.770;2022-08-01T03:10:45;4.63;;;3.53;;
9526;SDS011;4802;51.494;6.770;2022-08-01T03:13:16;3.37;;;3.10;;
9526;SDS011;4802;51.494;6.770;2022-08-01T03:15:47;5.53;;;4.37;;
9526;SDS011;4802;51.494;6.770;2022-08-01T03:18:18;3.63;;;3.17;;
9526;SDS011;4802;51.494;6.770;2022-08-01T03:20:49;2.80;;;2.60;;
9526;SDS011;4802;51.494;6.770;2022-08-01T03:23:21;5.17;;;4.00;;
9526;SDS011;4802;51.494;6.770;2022-08-01T03:26:03;4.27;;;3.87;;
9526;SDS011;4802;51.494;6.770;2022-08-01T03:28:33;6.80;;;3.77;;
9526;SDS011;4802;51.494;6.770;2022-08-01T03:31:05;5.47;;;4.07;;
9526;SDS011;4802;51.494;6.770;2022-08-01T03:33:35;3.00;;;2.80;;
9526;SDS011;4802;51.494;6.770;2022-08-01T03:36:04;6.77;;;4.03;;
9526;SDS011;4802;51.494;6.770;2022-08-01T03:38:37;3.50;;;3.20;;
9526;SDS011;4802;51.494;6.770;2022-08-01T03:41:09;3.10;;;2.50;;
9526;SDS011;4802;51.494;6.770;2022-08-01T03:43:41;6.37;;;3.73;;
9526;SDS011;4802;51.494;6.770;2022-08-01T03:46:17;4.47;;;4.07;;
9526;SDS011;4802;51.494;6.770;2022-08-01T03:48:52;4.03;;;3.80;;
9526;SDS011;4802;51.494;6.770;2022-08-01T03:51:26;4.97;;;4.13;;
9526;SDS011;4802;51.494;6.770;2022-08-01T03:53:57;6.10;;;3.93;;
9526;SDS011;4802;51.494;6.770;2022-08-01T03:56:28;6.10;;;3.40;;
9526;SDS011;4802;51.494;6.770;2022-08-01T03:58:58;3.57;;;3.30;;
9526;SDS011;4802;51.494;6.770;2022-08-01T04:01:29;4.63;;;2.87;;
9526;SDS011;4802;51.494;6.770;2022-08-01T04:04:01;5.53;;;3.63;;
9526;SDS011;4802;51.494;6.770;2022-08-01T04:06:32;5.63;;;3.97;;
9526;SDS011;4802;51.494;6.770;2022-08-01T04:09:01;3.97;;;3.00;;
9526;SDS011;4802;51.494;6.770;2022-08-01T04:11:30;3.63;;;3.10;;
9526;SDS011;4802;51.494;6.770;2022-08-01T04:13:59;4.47;;;3.57;;
9526;SDS011;4802;51.494;6.770;2022-08-01T04:16:34;4.13;;;3.80;;
9526;SDS011;4802;51.494;6.770;2022-08-01T04:19:05;4.40;;;3.47;;
9526;SDS011;4802;51.494;6.770;2022-08-01T04:21:34;3.30;;;3.00;;
9526;SDS011;4802;51.494;6.770;2022-08-01T04:24:06;3.53;;;3.23;;
9526;SDS011;4802;51.494;6.770;2022-08-01T04:26:38;6.63;;;3.30;;
9526;SDS011;4802;51.494;6.770;2022-08-01T04:29:09;3.47;;;3.17;;
9526;SDS011;4802;51.494;6.770;2022-08-01T04:31:41;4.97;;;4.47;;
9526;SDS011;4802;51.494;6.770;2022-08-01T04:34:14;4.63;;;4.23;;
9526;SDS011;4802;51.494;6.770;2022-08-01T04:36:45;2.50;;;2.37;;
9526;SDS011;4802;51.494;6.770;2022-08-01T04:39:15;8.97;;;4.00;;
9526;SDS011;4802;51.494;6.770;2022-08-01T04:41:46;4.77;;;4.27;;
9526;SDS011;4802;51.494;6.770;2022-08-01T04:44:17;3.60;;;3.30;;
9526;SDS011;4802;51.494;6.770;2022-08-01T04:46:49;4.40;;;3.67;;
9526;SDS011;4802;51.494;6.770;2022-08-01T04:49:22;3.17;;;2.97;;
9526;SDS011;4802;51.494;6.770;2022-08-01T04:51:52;3.30;;;2.60;;
9526;SDS011;4802;51.494;6.770;2022-08-01T04:54:25;4.30;;;3.90;;
9526;SDS011;4802;51.494;6.770;2022-08-01T04:56:54;3.93;;;3.63;;
9526;SDS011;4802;51.494;6.770;2022-08-01T04:59:26;4.07;;;3.77;;
9526;SDS011;4802;51.494;6.770;2022-08-01T05:02:08;3.00;;;2.80;;
9526;SDS011;4802;51.494;6.770;2022-08-01T05:04:42;4.20;;;3.27;;
9526;SDS011;4802;51.494;6.770;2022-08-01T05:07:12;4.10;;;2.23;;
9526;SDS011;4802;51.494;6.770;2022-08-01T05:09:42;2.63;;;2.30;;
9526;SDS011;4802;51.494;6.770;2022-08-01T05:12:12;3.60;;;2.33;;
9526;SDS011;4802;51.494;6.770;2022-08-01T05:14:42;4.30;;;2.40;;
9526;SDS011;4802;51.494;6.770;2022-08-01T05:17:14;3.87;;;2.63;;
9526;SDS011;4802;51.494;6.770;2022-08-01T05:19:45;3.17;;;2.97;;
9526;SDS011;4802;51.494;6.770;2022-08-01T05:22:14;9.60;;;2.47;;
9526;SDS011;4802;51.494;6.770;2022-08-01T05:24:43;5.77;;;2.83;;
9526;SDS011;4802;51.494;6.770;2022-08-01T05:27:14;1.33;;;1.23;;
9526;SDS011;4802;51.494;6.770;2022-08-01T05:29:44;2.13;;;1.97;;
9526;SDS011;4802;51.494;6.770;2022-08-01T05:32:13;1.80;;;1.67;;
9526;SDS011;4802;51.494;6.770;2022-08-01T05:34:42;1.83;;;1.37;;
9526;SDS011;4802;51.494;6.770;2022-08-01T05:37:14;2.07;;;1.97;;
9526;SDS011;4802;51.494;6.770;2022-08-01T05:39:46;1.63;;;1.20;;
9526;SDS011;4802;51.494;6.770;2022-08-01T05:42:16;2.97;;;1.20;;
9526;SDS011;4802;51.494;6.770;2022-08-01T05:44:45;3.13;;;2.70;;
9526;SDS011;4802;51.494;6.770;2022-08-01T05:47:15;4.80;;;2.90;;
9526;SDS011;4802;51.494;6.770;2022-08-01T05:49:44;3.43;;;2.83;;
9526;SDS011;4802;51.494;6.770;2022-08-01T05:52:15;3.03;;;2.70;;
9526;SDS011;4802;51.494;6.770;2022-08-01T05:54:45;5.30;;;3.30;;
9526;SDS011;4802;51.494;6.770;2022-08-01T05:57:15;4.70;;;3.53;;
9526;SDS011;4802;51.494;6.770;2022-08-01T05:59:44;4.40;;;2.97;;
9526;SDS011;4802;51.494;6.770;2022-08-01T06:02:16;3.07;;;2.10;;
9526;SDS011;4802;51.494;6.770;2022-08-01T06:04:45;4.93;;;3.80;;
9526;SDS011;4802;51.494;6.770;2022-08-01T06:07:15;5.43;;;3.00;;
9526;SDS011;4802;51.494;6.770;2022-08-01T06:09:44;4.63;;;2.87;;
9526;SDS011;4802;51.494;6.770;2022-08-01T06:12:13;3.20;;;2.00;;
9526;SDS011;4802;51.494;6.770;2022-08-01T06:14:42;3.00;;;2.00;;
9526;SDS011;4802;51.494;6.770;2022-08-01T06:17:11;2.63;;;1.80;;
9526;SDS011;4802;51.494;6.770;2022-08-01T06:19:40;3.50;;;1.83;;
9526;SDS011;4802;51.494;6.770;2022-08-01T06:22:09;1.50;;;1.40;;
9526;SDS011;4802;51.494;6.770;2022-08-01T06:24:39;2.20;;;2.00;;
9526;SDS011;4802;51.494;6.770;2022-08-01T06:27:09;2.83;;;1.83;;
9526;SDS011;4802;51.494;6.770;2022-08-01T06:29:47;3.40;;;2.57;;
9526;SDS011;4802;51.494;6.770;2022-08-01T06:32:21;4.87;;;1.77;;
9526;SDS011;4802;51.494;6.770;2022-08-01T06:34:53;1.83;;;1.33;;
9526;SDS011;4802;51.494;6.770;2022-08-01T06:37:29;2.07;;;1.47;;
9526;SDS011;4802;51.494;6.770;2022-08-01T06:40:02;1.20;;;1.20;;
9526;SDS011;4802;51.494;6.770;2022-08-01T06:42:42;3.40;;;3.17;;
9526;SDS011;4802;51.494;6.770;2022-08-01T06:45:15;2.57;;;2.33;;
9526;SDS011;4802;51.494;6.770;2022-08-01T06:47:44;8.37;;;3.20;;
9526;SDS011;4802;51.494;6.770;2022-08-01T06:50:18;4.20;;;2.47;;
9526;SDS011;4802;51.494;6.770;2022-08-01T06:52:47;3.13;;;1.97;;
9526;SDS011;4802;51.494;6.770;2022-08-01T06:55:18;1.17;;;1.03;;
9526;SDS011;4802;51.494;6.770;2022-08-01T06:57:53;2.10;;;1.30;;
9526;SDS011;4802;51.494;6.770;2022-08-01T07:00:25;1.23;;;1.17;;
9526;SDS011;4802;51.494;6.770;2022-08-01T07:02:56;2.50;;;1.33;;
9526;SDS011;4802;51.494;6.770;2022-08-01T07:05:28;1.10;;;0.93;;
9526;SDS011;4802;51.494;6.770;2022-08-01T07:07:58;1.80;;;1.70;;
9526;SDS011;4802;51.494;6.770;2022-08-01T07:10:29;2.37;;;1.73;;
9526;SDS011;4802;51.494;6.770;2022-08-01T07:13:06;2.20;;;1.70;;
9526;SDS011;4802;51.494;6.770;2022-08-01T07:15:36;2.30;;;2.10;;
9526;SDS011;4802;51.494;6.770;2022-08-01T07:18:05;6.03;;;2.80;;
9526;SDS011;4802;51.494;6.770;2022-08-01T07:20:35;5.40;;;2.97;;
9526;SDS011;4802;51.494;6.770;2022-08-01T07:23:18;4.20;;;3.27;;
9526;SDS011;4802;51.494;6.770;2022-08-01T07:25:49;2.30;;;2.00;;
9526;SDS011;4802;51.494;6.770;2022-08-01T07:28:23;2.73;;;2.30;;
9526;SDS011;4802;51.494;6.770;2022-08-01T07:30:52;1.70;;;1.40;;
9526;SDS011;4802;51.494;6.770;2022-08-01T07:33:21;2.50;;;2.30;;
9526;SDS011;4802;51.494;6.770;2022-08-01T07:36:14;2.90;;;2.33;;
9526;SDS011;4802;51.494;6.770;2022-08-01T07:38:44;2.97;;;2.60;;
9526;SDS011;4802;51.494;6.770;2022-08-01T07:44:34;2.57;;;2.30;;
9526;SDS011;4802;51.494;6.770;2022-08-01T07:47:12;2.87;;;2.57;;
9526;SDS011;4802;51.494;6.770;2022-08-01T07:50:20;1.30;;;1.20;;
9526;SDS011;4802;51.494;6.770;2022-08-01T07:53:00;0.97;;;0.97;;
9526;SDS011;4802;51.494;6.770;2022-08-01T07:55:31;1.17;;;1.17;;
9526;SDS011;4802;51.494;6.770;2022-08-01T07:58:04;1.57;;;1.47;;
9526;SDS011;4802;51.494;6.770;2022-08-01T08:00:36;1.63;;;1.13;;
9526;SDS011;4802;51.494;6.770;2022-08-01T08:03:23;1.30;;;1.20;;
9526;SDS011;4802;51.494;6.770;2022-08-01T08:05:53;0.77;;;0.77;;
9526;SDS011;4802;51.494;6.770;2022-08-01T08:08:26;1.10;;;1.10;;
9526;SDS011;4802;51.494;6.770;2022-08-01T08:10:59;1.10;;;1.10;;
9526;SDS011;4802;51.494;6.770;2022-08-01T08:13:30;2.53;;;1.90;;
9526;SDS011;4802;51.494;6.770;2022-08-01T08:16:05;1.33;;;1.23;;
9526;SDS011;4802;51.494;6.770;2022-08-01T08:18:51;1.40;;;1.30;;
9526;SDS011;4802;51.494;6.770;2022-08-01T08:21:38;1.33;;;1.33;;
9526;SDS011;4802;51.494;6.770;2022-08-01T08:24:14;1.50;;;1.40;;
9526;SDS011;4802;51.494;6.770;2022-08-01T08:26:53;0.97;;;0.90;;
9526;SDS011;4802;51.494;6.770;2022-08-01T08:29:28;0.93;;;0.93;;
9526;SDS011;4802;51.494;6.770;2022-08-01T08:32:07;1.60;;;1.50;;
9526;SDS011;4802;51.494;6.770;2022-08-01T08:34:38;0.90;;;0.90;;
9526;SDS011;4802;51.494;6.770;2022-08-01T08:37:08;1.63;;;1.53;;
9526;SDS011;4802;51.494;6.770;2022-08-01T08:39:47;1.53;;;1.30;;
9526;SDS011;4802;51.494;6.770;2022-08-01T08:42:16;2.23;;;1.53;;
9526;SDS011;4802;51.494;6.770;2022-08-01T08:44:52;3.07;;;1.20;;
9526;SDS011;4802;51.494;6.770;2022-08-01T08:47:28;1.40;;;1.30;;
9526;SDS011;4802;51.494;6.770;2022-08-01T08:50:02;1.10;;;0.77;;
9526;SDS011;4802;51.494;6.770;2022-08-01T08:52:34;1.20;;;1.10;;
9526;SDS011;4802;51.494;6.770;2022-08-01T08:55:07;0.97;;;0.87;;
9526;SDS011;4802;51.494;6.770;2022-08-01T08:57:45;1.23;;;1.00;;
9526;SDS011;4802;51.494;6.770;2022-08-01T09:00:25;1.33;;;1.07;;
9526;SDS011;4802;51.494;6.770;2022-08-01T09:02:56;1.43;;;1.10;;
9526;SDS011;4802;51.494;6.770;2022-08-01T09:05:28;1.50;;;1.40;;
9526;SDS011;4802;51.494;6.770;2022-08-01T09:08:06;0.60;;;0.60;;
9526;SDS011;4802;51.494;6.770;2022-08-01T09:10:40;1.03;;;1.03;;
9526;SDS011;4802;51.494;6.770;2022-08-01T09:13:19;0.57;;;0.57;;
9526;SDS011;4802;51.494;6.770;2022-08-01T09:15:51;1.10;;;1.00;;
9526;SDS011;4802;51.494;6.770;2022-08-01T09:18:27;0.80;;;0.77;;
9526;SDS011;4802;51.494;6.770;2022-08-01T09:21:11;1.37;;;1.07;;
9526;SDS011;4802;51.494;6.770;2022-08-01T09:23:44;1.13;;;1.03;;
9526;SDS011;4802;51.494;6.770;2022-08-01T09:26:21;1.00;;;0.90;;
9526;SDS011;4802;51.494;6.770;2022-08-01T09:29:06;0.80;;;0.80;;
9526;SDS011;4802;51.494;6.770;2022-08-01T09:31:44;2.20;;;0.70;;
9526;SDS011;4802;51.494;6.770;2022-08-01T09:34:24;0.90;;;0.77;;
9526;SDS011;4802;51.494;6.770;2022-08-01T09:36:58;1.43;;;0.60;;
9526;SDS011;4802;51.494;6.770;2022-08-01T09:39:35;1.00;;;1.00;;
9526;SDS011;4802;51.494;6.770;2022-08-01T09:42:18;0.70;;;0.70;;
9526;SDS011;4802;51.494;6.770;2022-08-01T09:44:55;1.13;;;0.70;;
9526;SDS011;4802;51.494;6.770;2022-08-01T09:47:36;0.60;;;0.60;;
9526;SDS011;4802;51.494;6.770;2022-08-01T09:50:09;1.10;;;1.03;;
9526;SDS011;4802;51.494;6.770;2022-08-01T09:52:41;0.53;;;0.50;;
9526;SDS011;4802;51.494;6.770;2022-08-01T09:55:23;0.60;;;0.53;;
9526;SDS011;4802;51.494;6.770;2022-08-01T09:57:54;5.60;;;0.60;;
9526;SDS011;4802;51.494;6.770;2022-08-01T10:00:31;1.13;;;0.70;;
9526;SDS011;4802;51.494;6.770;2022-08-01T10:03:22;0.50;;;0.43;;
9526;SDS011;4802;51.494;6.770;2022-08-01T10:06:15;0.63;;;0.50;;
9526;SDS011;4802;51.494;6.770;2022-08-01T10:08:50;0.60;;;0.53;;
9526;SDS011;4802;51.494;6.770;2022-08-01T10:11:27;1.60;;;0.60;;
9526;SDS011;4802;51.494;6.770;2022-08-01T10:14:02;0.43;;;0.33;;
9526;SDS011;4802;51.494;6.770;2022-08-01T10:16:43;0.40;;;0.40;;
9526;SDS011;4802;51.494;6.770;2022-08-01T10:22:38;0.57;;;0.57;;
9526;SDS011;4802;51.494;6.770;2022-08-01T10:25:11;0.40;;;0.30;;
9526;SDS011;4802;51.494;6.770;2022-08-01T10:28:10;0.50;;;0.30;;
9526;SDS011;4802;51.494;6.770;2022-08-01T10:30:50;0.87;;;0.80;;
9526;SDS011;4802;51.494;6.770;2022-08-01T10:33:23;0.50;;;0.50;;
9526;SDS011;4802;51.494;6.770;2022-08-01T10:36:15;0.50;;;0.50;;
9526;SDS011;4802;51.494;6.770;2022-08-01T10:39:00;0.40;;;0.40;;
9526;SDS011;4802;51.494;6.770;2022-08-01T10:44:25;0.40;;;0.33;;
9526;SDS011;4802;51.494;6.770;2022-08-01T10:46:59;0.50;;;0.50;;
9526;SDS011;4802;51.494;6.770;2022-08-01T10:51:13;0.60;;;0.30;;
9526;SDS011;4802;51.494;6.770;2022-08-01T10:53:50;0.50;;;0.40;;
9526;SDS011;4802;51.494;6.770;2022-08-01T10:56:59;0.70;;;0.50;;
9526;SDS011;4802;51.494;6.770;2022-08-01T10:59:33;0.43;;;0.40;;
9526;SDS011;4802;51.494;6.770;2022-08-01T11:02:27;0.40;;;0.30;;
9526;SDS011;4802;51.494;6.770;2022-08-01T11:05:30;0.40;;;0.30;;
9526;SDS011;4802;51.494;6.770;2022-08-01T11:08:20;0.63;;;0.63;;
9526;SDS011;4802;51.494;6.770;2022-08-01T11:11:01;1.20;;;0.60;;
9526;SDS011;4802;51.494;6.770;2022-08-01T11:16:40;0.70;;;0.50;;
9526;SDS011;4802;51.494;6.770;2022-08-01T11:19:16;0.40;;;0.40;;
9526;SDS011;4802;51.494;6.770;2022-08-01T11:21:59;0.43;;;0.30;;
9526;SDS011;4802;51.494;6.770;2022-08-01T11:27:47;0.40;;;0.40;;
9526;SDS011;4802;51.494;6.770;2022-08-01T11:30:24;0.40;;;0.30;;
9526;SDS011;4802;51.494;6.770;2022-08-01T11:32:56;0.57;;;0.57;;
9526;SDS011;4802;51.494;6.770;2022-08-01T11:35:37;0.63;;;0.43;;
9526;SDS011;4802;51.494;6.770;2022-08-01T11:38:27;0.40;;;0.30;;
9526;SDS011;4802;51.494;6.770;2022-08-01T11:41:09;0.40;;;0.40;;
9526;SDS011;4802;51.494;6.770;2022-08-01T11:47:00;1.57;;;0.50;;
9526;SDS011;4802;51.494;6.770;2022-08-01T11:49:46;0.50;;;0.40;;
9526;SDS011;4802;51.494;6.770;2022-08-01T11:52:27;0.50;;;0.50;;
9526;SDS011;4802;51.494;6.770;2022-08-01T11:55:05;0.90;;;0.40;;
9526;SDS011;4802;51.494;6.770;2022-08-01T11:57:45;0.50;;;0.40;;
9526;SDS011;4802;51.494;6.770;2022-08-01T12:00:18;3.83;;;2.57;;
9526;SDS011;4802;51.494;6.770;2022-08-01T12:02:53;0.97;;;0.93;;
9526;SDS011;4802;51.494;6.770;2022-08-01T12:05:34;0.70;;;0.60;;
9526;SDS011;4802;51.494;6.770;2022-08-01T12:09:15;0.57;;;0.57;;
9526;SDS011;4802;51.494;6.770;2022-08-01T12:12:04;0.40;;;0.40;;
9526;SDS011;4802;51.494;6.770;2022-08-01T12:14:40;5.70;;;0.50;;
9526;SDS011;4802;51.494;6.770;2022-08-01T12:17:14;0.50;;;0.40;;
9526;SDS011;4802;51.494;6.770;2022-08-01T12:19:44;0.40;;;0.40;;
9526;SDS011;4802;51.494;6.770;2022-08-01T12:22:21;0.40;;;0.40;;
9526;SDS011;4802;51.494;6.770;2022-08-01T12:24:51;0.50;;;0.40;;
9526;SDS011;4802;51.494;6.770;2022-08-01T12:27:27;0.50;;;0.43;;
9526;SDS011;4802;51.494;6.770;2022-08-01T12:29:58;0.50;;;0.43;;
9526;SDS011;4802;51.494;6.770;2022-08-01T12:32:33;0.60;;;0.60;;
9526;SDS011;4802;51.494;6.770;2022-08-01T12:35:07;1.23;;;0.50;;
9526;SDS011;4802;51.494;6.770;2022-08-01T12:37:59;0.60;;;0.57;;
9526;SDS011;4802;51.494;6.770;2022-08-01T12:40:30;2.30;;;0.70;;
9526;SDS011;4802;51.494;6.770;2022-08-01T12:43:06;0.50;;;0.50;;
9526;SDS011;4802;51.494;6.770;2022-08-01T12:45:55;0.50;;;0.40;;
9526;SDS011;4802;51.494;6.770;2022-08-01T12:48:44;0.40;;;0.40;;
9526;SDS011;4802;51.494;6.770;2022-08-01T12:51:13;1.33;;;0.40;;
9526;SDS011;4802;51.494;6.770;2022-08-01T12:53:50;0.50;;;0.50;;
9526;SDS011;4802;51.494;6.770;2022-08-01T12:56:22;0.50;;;0.50;;
9526;SDS011;4802;51.494;6.770;2022-08-01T12:59:01;1.17;;;0.50;;
9526;SDS011;4802;51.494;6.770;2022-08-01T13:01:52;0.40;;;0.40;;
9526;SDS011;4802;51.494;6.770;2022-08-01T13:04:29;0.40;;;0.30;;
9526;SDS011;4802;51.494;6.770;2022-08-01T13:06:58;0.70;;;0.67;;
9526;SDS011;4802;51.494;6.770;2022-08-01T13:09:31;0.50;;;0.50;;
9526;SDS011;4802;51.494;6.770;2022-08-01T13:12:15;0.40;;;0.30;;
9526;SDS011;4802;51.494;6.770;2022-08-01T13:15:00;0.47;;;0.40;;
9526;SDS011;4802;51.494;6.770;2022-08-01T13:17:46;0.63;;;0.57;;
9526;SDS011;4802;51.494;6.770;2022-08-01T13:20:29;0.50;;;0.40;;
9526;SDS011;4802;51.494;6.770;2022-08-01T13:23:16;0.50;;;0.50;;
9526;SDS011;4802;51.494;6.770;2022-08-01T13:26:07;0.43;;;0.37;;
9526;SDS011;4802;51.494;6.770;2022-08-01T13:28:37;0.50;;;0.50;;
9526;SDS011;4802;51.494;6.770;2022-08-01T13:31:12;0.53;;;0.53;;
9526;SDS011;4802;51.494;6.770;2022-08-01T13:33:43;0.90;;;0.90;;
9526;SDS011;4802;51.494;6.770;2022-08-01T13:36:27;0.70;;;0.70;;
9526;SDS011;4802;51.494;6.770;2022-08-01T13:38:58;0.40;;;0.30;;
9526;SDS011;4802;51.494;6.770;2022-08-01T13:41:44;0.70;;;0.70;;
9526;SDS011;4802;51.494;6.770;2022-08-01T13:44:16;0.60;;;0.60;;
9526;SDS011;4802;51.494;6.770;2022-08-01T13:46:46;0.50;;;0.40;;
9526;SDS011;4802;51.494;6.770;2022-08-01T13:49:17;0.60;;;0.60;;
9526;SDS011;4802;51.494;6.770;2022-08-01T13:51:50;0.50;;;0.50;;
9526;SDS011;4802;51.494;6.770;2022-08-01T13:54:20;0.60;;;0.60;;
9526;SDS011;4802;51.494;6.770;2022-08-01T13:56:52;0.50;;;0.50;;
9526;SDS011;4802;51.494;6.770;2022-08-01T13:59:24;0.80;;;0.80;;
9526;SDS011;4802;51.494;6.770;2022-08-01T14:01:57;0.90;;;0.73;;
9526;SDS011;4802;51.494;6.770;2022-08-01T14:04:26;0.60;;;0.57;;
9526;SDS011;4802;51.494;6.770;2022-08-01T14:06:58;1.00;;;0.70;;
9526;SDS011;4802;51.494;6.770;2022-08-01T14:09:35;0.80;;;0.80;;
9526;SDS011;4802;51.494;6.770;2022-08-01T14:12:24;0.50;;;0.50;;
9526;SDS011;4802;51.494;6.770;2022-08-01T14:14:56;0.60;;;0.60;;
9526;SDS011;4802;51.494;6.770;2022-08-01T14:17:27;3.20;;;0.60;;
9526;SDS011;4802;51.494;6.770;2022-08-01T14:19:56;0.70;;;0.70;;
9526;SDS011;4802;51.494;6.770;2022-08-01T14:22:27;8.03;;;0.80;;
9526;SDS011;4802;51.494;6.770;2022-08-01T14:24:56;3.47;;;0.70;;
9526;SDS011;4802;51.494;6.770;2022-08-01T14:27:29;0.50;;;0.50;;
9526;SDS011;4802;51.494;6.770;2022-08-01T14:29:58;0.80;;;0.77;;
9526;SDS011;4802;51.494;6.770;2022-08-01T14:32:30;0.63;;;0.63;;
9526;SDS011;4802;51.494;6.770;2022-08-01T14:35:00;1.17;;;0.57;;
9526;SDS011;4802;51.494;6.770;2022-08-01T14:37:31;1.70;;;1.20;;
9526;SDS011;4802;51.494;6.770;2022-08-01T14:40:04;3.80;;;0.93;;
9526;SDS011;4802;51.494;6.770;2022-08-01T14:42:36;0.60;;;0.60;;
9526;SDS011;4802;51.494;6.770;2022-08-01T14:45:06;0.93;;;0.93;;
9526;SDS011;4802;51.494;6.770;2022-08-01T14:47:36;0.73;;;0.73;;
9526;SDS011;4802;51.494;6.770;2022-08-01T14:50:07;3.03;;;0.70;;
9526;SDS011;4802;51.494;6.770;2022-08-01T14:52:40;0.73;;;0.40;;
9526;SDS011;4802;51.494;6.770;2022-08-01T14:55:11;1.73;;;0.90;;
9526;SDS011;4802;51.494;6.770;2022-08-01T14:57:41;1.20;;;1.00;;
9526;SDS011;4802;51.494;6.770;2022-08-01T15:00:10;1.40;;;1.30;;
9526;SDS011;4802;51.494;6.770;2022-08-01T15:02:43;0.70;;;0.60;;
9526;SDS011;4802;51.494;6.770;2022-08-01T15:05:16;0.70;;;0.47;;
9526;SDS011;4802;51.494;6.770;2022-08-01T15:07:50;0.60;;;0.60;;
9526;SDS011;4802;51.494;6.770;2022-08-01T15:10:19;0.40;;;0.40;;
9526;SDS011;4802;51.494;6.770;2022-08-01T15:12:49;0.53;;;0.53;;
9526;SDS011;4802;51.494;6.770;2022-08-01T15:15:18;0.40;;;0.30;;
9526;SDS011;4802;51.494;6.770;2022-08-01T15:17:47;0.50;;;0.47;;
9526;SDS011;4802;51.494;6.770;2022-08-01T15:20:19;5.43;;;3.57;;
9526;SDS011;4802;51.494;6.770;2022-08-01T15:22:53;1.30;;;1.20;;
9526;SDS011;4802;51.494;6.770;2022-08-01T15:25:24;0.90;;;0.70;;
9526;SDS011;4802;51.494;6.770;2022-08-01T15:28:07;0.70;;;0.70;;
9526;SDS011;4802;51.494;6.770;2022-08-01T15:30:37;1.23;;;0.40;;
9526;SDS011;4802;51.494;6.770;2022-08-01T15:33:10;0.40;;;0.40;;
9526;SDS011;4802;51.494;6.770;2022-08-01T15:35:39;0.50;;;0.50;;
9526;SDS011;4802;51.494;6.770;2022-08-01T15:38:11;0.50;;;0.40;;
9526;SDS011;4802;51.494;6.770;2022-08-01T15:40:40;0.50;;;0.30;;
9526;SDS011;4802;51.494;6.770;2022-08-01T15:43:10;0.73;;;0.70;;
9526;SDS011;4802;51.494;6.770;2022-08-01T15:45:41;0.50;;;0.50;;
9526;SDS011;4802;51.494;6.770;2022-08-01T15:48:14;0.70;;;0.40;;
9526;SDS011;4802;51.494;6.770;2022-08-01T15:50:43;0.50;;;0.50;;
9526;SDS011;4802;51.494;6.770;2022-08-01T15:53:15;0.60;;;0.50;;
9526;SDS011;4802;51.494;6.770;2022-08-01T15:55:53;0.40;;;0.40;;
9526;SDS011;4802;51.494;6.770;2022-08-01T15:58:23;0.50;;;0.50;;
9526;SDS011;4802;51.494;6.770;2022-08-01T16:00:52;0.60;;;0.60;;
9526;SDS011;4802;51.494;6.770;2022-08-01T16:03:21;0.70;;;0.70;;
9526;SDS011;4802;51.494;6.770;2022-08-01T16:05:50;1.47;;;0.90;;
9526;SDS011;4802;51.494;6.770;2022-08-01T16:08:22;1.10;;;0.63;;
9526;SDS011;4802;51.494;6.770;2022-08-01T16:10:51;2.43;;;0.73;;
9526;SDS011;4802;51.494;6.770;2022-08-01T16:13:21;0.60;;;0.60;;
9526;SDS011;4802;51.494;6.770;2022-08-01T16:15:53;2.10;;;2.00;;
9526;SDS011;4802;51.494;6.770;2022-08-01T16:18:23;0.90;;;0.73;;
9526;SDS011;4802;51.494;6.770;2022-08-01T16:20:52;0.53;;;0.53;;
9526;SDS011;4802;51.494;6.770;2022-08-01T16:23:25;3.07;;;0.80;;